createdAt,value
2022-10-24T00:01:48.755Z,100982.00
2022-10-24T00:04:17.072Z,100994.53
2022-10-24T00:06:45.397Z,100987.22
2022-10-24T00:09:13.716Z,100982.84
2022-10-24T00:11:43.641Z,100992.22
2022-10-24T00:14:12.739Z,100978.03
2022-10-24T00:16:41.053Z,100988.91
2022-10-24T00:19:10.704Z,100986.19
2022-10-24T00:21:39.128Z,100979.28
2022-10-24T00:24:08.502Z,100970.50
2022-10-24T00:26:37.100Z,100970.28
2022-10-24T00:29:06.070Z,100956.69
2022-10-24T00:31:34.379Z,100964.44
2022-10-24T00:34:03.287Z,100919.88
2022-10-24T00:36:33.316Z,100958.78
2022-10-24T00:39:01.729Z,100947.72
2022-10-24T00:41:33.645Z,100954.19
2022-10-24T00:44:23.535Z,100947.91
2022-10-24T00:46:56.313Z,100948.34
2022-10-24T00:49:28.487Z,100961.91
2022-10-24T00:52:04.252Z,100975.72
2022-10-24T00:54:32.890Z,100975.91
2022-10-24T00:57:06.159Z,100983.84
2022-10-24T00:59:37.346Z,100986.56
2022-10-24T01:02:05.914Z,100974.88
2022-10-24T01:04:34.231Z,100965.03
2022-10-24T01:07:18.569Z,100956.06
2022-10-24T01:10:08.463Z,100950.81
2022-10-24T01:12:48.012Z,100937.03
2022-10-24T01:15:22.217Z,100953.75
2022-10-24T01:17:58.096Z,100946.44
2022-10-24T01:21:00.250Z,100951.44
2022-10-24T01:23:49.770Z,100945.38
2022-10-24T01:26:41.997Z,100953.09
2022-10-24T01:29:18.539Z,100940.78
2022-10-24T01:31:52.578Z,100928.47
2022-10-24T01:34:27.672Z,100921.16
2022-10-24T01:37:02.953Z,100917.81
2022-10-24T01:39:37.252Z,100914.44
2022-10-24T01:42:07.357Z,100918.00
2022-10-24T01:44:41.055Z,100929.72
2022-10-24T01:47:16.351Z,100926.59
2022-10-24T01:49:50.729Z,100948.09
2022-10-24T01:52:20.559Z,100931.81
2022-10-24T01:54:49.882Z,100938.28
2022-10-24T01:57:18.117Z,100938.28
2022-10-24T01:59:48.407Z,100905.84
2022-10-24T02:02:22.606Z,100921.16
2022-10-24T02:04:57.389Z,100921.16
2022-10-24T02:07:27.963Z,100912.56
2022-10-24T02:10:01.543Z,100895.84
2022-10-24T02:12:31.144Z,100917.16
2022-10-24T02:15:04.997Z,100934.94
2022-10-24T02:17:34.831Z,100937.66
2022-10-24T02:20:03.824Z,100940.78
2022-10-24T02:22:37.519Z,100927.59
2022-10-24T02:25:10.303Z,100919.47
2022-10-24T02:27:42.330Z,100807.16
2022-10-24T02:30:13.637Z,100925.09
2022-10-24T02:32:46.839Z,100909.44
2022-10-24T02:35:18.754Z,100895.88
2022-10-24T02:37:51.306Z,100867.63
2022-10-24T02:40:21.414Z,100875.59
2022-10-24T02:42:52.433Z,100878.09
2022-10-24T02:45:22.434Z,100878.94
2022-10-24T02:47:56.384Z,100874.75
2022-10-24T02:50:25.255Z,100874.97
2022-10-24T02:52:53.636Z,100890.00
2022-10-24T02:55:21.895Z,100894.41
2022-10-24T02:57:50.090Z,100895.88
2022-10-24T03:00:19.604Z,100900.47
2022-10-24T03:02:47.970Z,100900.06
2022-10-24T03:05:18.964Z,100906.91
2022-10-24T03:07:47.360Z,100898.97
2022-10-24T03:10:15.795Z,100915.28
2022-10-24T03:12:44.330Z,100916.53
2022-10-24T03:15:13.113Z,100911.94
2022-10-24T03:17:41.537Z,100921.13
2022-10-24T03:20:10.967Z,100924.47
2022-10-24T03:22:40.600Z,100918.22
2022-10-24T03:25:11.539Z,100910.28
2022-10-24T03:27:40.910Z,100907.38
2022-10-24T03:30:10.524Z,100894.41
2022-10-24T03:32:38.775Z,100898.59
2022-10-24T03:35:10.378Z,100893.56
2022-10-24T03:37:43.154Z,100890.00
2022-10-24T03:40:12.553Z,100887.28
2022-10-24T03:42:40.806Z,100898.78
2022-10-24T03:45:09.901Z,100900.06
2022-10-24T03:47:38.583Z,100899.81
2022-10-24T03:50:08.424Z,100906.91
2022-10-24T03:52:36.771Z,100903.19
2022-10-24T03:55:07.223Z,100912.56
2022-10-24T03:57:35.595Z,100919.66
2022-10-24T04:00:04.715Z,100917.59
2022-10-24T04:02:35.144Z,100926.56
2022-10-24T04:05:03.934Z,100934.91
2022-10-24T04:07:32.170Z,100931.16
2022-10-24T04:10:00.453Z,100933.25
2022-10-24T04:12:30.153Z,100937.63
2022-10-24T04:15:02.427Z,100935.97
2022-10-24T04:17:33.199Z,100938.28
2022-10-24T04:20:01.462Z,100946.63
2022-10-24T04:22:29.829Z,100958.34
2022-10-24T04:24:58.044Z,100960.22
2022-10-24T04:27:26.419Z,100962.72
2022-10-24T04:29:56.037Z,100979.03
2022-10-24T04:32:24.358Z,100967.97
2022-10-24T04:34:52.763Z,100967.97
2022-10-24T04:37:21.201Z,100964.41
2022-10-24T04:39:49.413Z,100952.06
2022-10-24T04:42:17.691Z,100949.16
2022-10-24T04:44:45.991Z,100935.78
2022-10-24T04:47:15.711Z,100931.59
2022-10-24T04:49:44.075Z,100922.81
2022-10-24T04:52:12.373Z,100919.25
2022-10-24T04:54:40.709Z,100919.25
2022-10-24T04:57:08.989Z,100914.03
2022-10-24T04:59:37.272Z,100913.63
2022-10-24T05:02:05.674Z,100911.09
2022-10-24T05:04:35.429Z,100914.03
2022-10-24T05:07:04.247Z,100906.50
2022-10-24T05:09:32.523Z,100913.63
2022-10-24T05:12:02.455Z,100901.06
2022-10-24T05:14:30.820Z,100926.34
2022-10-24T05:16:59.210Z,100930.31
2022-10-24T05:19:27.519Z,100925.94
2022-10-24T05:21:57.128Z,100928.66
2022-10-24T05:24:26.559Z,100923.41
2022-10-24T05:26:54.840Z,100917.16
2022-10-24T05:29:23.067Z,100905.44
2022-10-24T05:31:51.333Z,100896.88
2022-10-24T05:34:19.622Z,100898.13
2022-10-24T05:36:48.269Z,100912.75
2022-10-24T05:39:17.919Z,100920.25
2022-10-24T05:41:47.346Z,100939.06
2022-10-24T05:44:16.686Z,100934.91
2022-10-24T05:46:45.037Z,100925.28
2022-10-24T05:49:14.869Z,100920.69
2022-10-24T05:51:43.186Z,100924.06
2022-10-24T05:56:46.031Z,100926.97
2022-10-24T05:59:14.324Z,100911.69
2022-10-24T06:01:43.147Z,100929.47
2022-10-24T06:04:13.797Z,100952.03
2022-10-24T06:06:43.532Z,100950.81
2022-10-24T06:09:12.355Z,100947.88
2022-10-24T06:11:40.707Z,100938.91
2022-10-24T06:14:10.677Z,100932.44
2022-10-24T06:16:38.987Z,100943.69
2022-10-24T06:19:07.183Z,100939.50
2022-10-24T06:21:35.568Z,100927.78
2022-10-24T06:24:03.728Z,100946.41
2022-10-24T06:26:32.017Z,100942.44
2022-10-24T06:29:00.258Z,100952.28
2022-10-24T06:31:29.917Z,100948.72
2022-10-24T06:33:58.313Z,100953.94
2022-10-24T06:36:29.302Z,100964.19
2022-10-24T06:38:59.874Z,100960.44
2022-10-24T06:41:28.100Z,100967.53
2022-10-24T06:43:56.540Z,100964.19
2022-10-24T06:46:25.170Z,100960.00
2022-10-24T06:48:56.774Z,100975.25
2022-10-24T06:51:25.266Z,100985.28
2022-10-24T06:53:54.522Z,100978.38
2022-10-24T06:56:22.888Z,100977.53
2022-10-24T06:58:51.079Z,100985.47
2022-10-24T07:01:21.999Z,100988.84
2022-10-24T07:03:50.960Z,100999.28
2022-10-24T07:08:58.083Z,101005.16
2022-10-24T07:11:26.876Z,101006.19
2022-10-24T07:13:59.558Z,101013.50
2022-10-24T07:16:30.273Z,101014.94
2022-10-24T07:18:58.739Z,101009.09
2022-10-24T07:21:30.618Z,100977.34
2022-10-24T07:23:59.884Z,101000.56
2022-10-24T07:26:29.892Z,101002.66
2022-10-24T07:31:36.616Z,101004.34
2022-10-24T07:34:08.629Z,101009.78
2022-10-24T07:36:42.815Z,101004.78
2022-10-24T07:39:13.180Z,101008.97
2022-10-24T07:41:42.958Z,101001.22
2022-10-24T07:44:12.232Z,100993.91
2022-10-24T07:46:42.261Z,100971.97
2022-10-24T07:49:11.043Z,100986.78
2022-10-24T07:51:42.009Z,100991.41
2022-10-24T07:54:10.446Z,101010.19
2022-10-24T07:56:38.895Z,101006.88
2022-10-24T07:59:09.759Z,101001.44
2022-10-24T08:01:47.842Z,100996.84
2022-10-24T08:04:16.061Z,100994.72
2022-10-24T08:06:46.933Z,101007.28
2022-10-24T08:09:16.128Z,101020.69
2022-10-24T08:11:44.427Z,101031.16
2022-10-24T08:14:12.702Z,101038.28
2022-10-24T08:16:42.475Z,101039.75
2022-10-24T08:19:15.238Z,101037.03
2022-10-24T08:21:43.584Z,101034.28
2022-10-24T08:24:13.134Z,101042.25
2022-10-24T08:26:41.457Z,101043.66
2022-10-24T08:29:11.674Z,101050.16
2022-10-24T08:31:40.160Z,101059.13
2022-10-24T08:34:08.488Z,101064.22
2022-10-24T08:36:37.330Z,101062.75
2022-10-24T08:39:05.752Z,101058.81
2022-10-24T08:41:39.626Z,101060.47
2022-10-24T08:44:22.075Z,101063.63
2022-10-24T08:46:54.194Z,101062.34
2022-10-24T08:49:30.771Z,101059.66
2022-10-24T08:52:02.981Z,101054.22
2022-10-24T08:54:38.128Z,101056.94
2022-10-24T08:57:11.210Z,101050.81
2022-10-24T08:59:40.068Z,101059.41
2022-10-24T09:02:19.084Z,101053.78
2022-10-24T09:04:52.554Z,101052.94
2022-10-24T09:10:06.098Z,101055.88
2022-10-24T09:12:36.979Z,101059.66
2022-10-24T09:15:15.287Z,101060.06
2022-10-24T09:17:45.502Z,101067.19
2022-10-24T09:20:25.757Z,101065.09
2022-10-24T09:22:55.725Z,101063.00
2022-10-24T09:25:29.704Z,101061.72
2022-10-24T09:28:03.749Z,101061.31
2022-10-24T09:30:33.402Z,101059.66
2022-10-24T09:33:13.437Z,101060.44
2022-10-24T09:35:43.930Z,101046.19
2022-10-24T09:38:28.055Z,101031.13
2022-10-24T09:40:58.250Z,101016.66
2022-10-24T09:43:34.953Z,101062.03
2022-10-24T09:46:06.665Z,101059.69
2022-10-24T09:48:47.371Z,101058.19
2022-10-24T09:51:25.394Z,101052.50
2022-10-24T09:54:27.173Z,101001.25
2022-10-24T09:56:58.435Z,101054.16
2022-10-24T09:59:36.342Z,101062.31
2022-10-24T10:02:24.697Z,101034.03
2022-10-24T10:05:19.067Z,101057.59
2022-10-24T10:07:51.062Z,101052.56
2022-10-24T10:10:32.080Z,101022.09
2022-10-24T10:13:19.987Z,101051.41
2022-10-24T10:15:51.844Z,101055.59
2022-10-24T10:18:30.570Z,101055.19
2022-10-24T10:21:03.167Z,101055.41
2022-10-24T10:23:34.590Z,101053.94
2022-10-24T10:26:09.894Z,101051.63
2022-10-24T10:28:44.575Z,101056.78
2022-10-24T10:31:14.856Z,101056.94
2022-10-24T10:33:54.038Z,101057.56
2022-10-24T10:36:26.742Z,101055.44
2022-10-24T10:39:10.243Z,101057.09
2022-10-24T10:41:48.014Z,101064.16
2022-10-24T10:44:36.225Z,101065.41
2022-10-24T10:47:14.097Z,101060.03
2022-10-24T10:49:44.218Z,101045.81
2022-10-24T10:52:15.187Z,101069.19
2022-10-24T10:55:01.026Z,101058.06
2022-10-24T10:57:37.141Z,101055.31
2022-10-24T11:00:10.823Z,101056.97
2022-10-24T11:02:58.229Z,101043.94
2022-10-24T11:05:44.780Z,101051.06
2022-10-24T11:08:38.878Z,101043.94
2022-10-24T11:11:12.502Z,101050.25
2022-10-24T11:13:48.274Z,101047.28
2022-10-24T11:16:22.939Z,101055.47
2022-10-24T11:18:54.915Z,101047.13
2022-10-24T11:21:25.658Z,101017.69
2022-10-24T11:23:58.588Z,101043.72
2022-10-24T11:26:33.949Z,101043.06
2022-10-24T11:29:11.003Z,101045.50
2022-10-24T11:31:41.953Z,101044.56
2022-10-24T11:34:19.399Z,101039.78
2022-10-24T11:36:55.836Z,101026.75
2022-10-24T11:39:28.978Z,101037.56
2022-10-24T11:42:03.543Z,101035.75
2022-10-24T11:44:42.298Z,101036.53
2022-10-24T11:47:34.617Z,101031.53
2022-10-24T11:50:14.253Z,101026.28
2022-10-24T11:52:49.053Z,101018.53
2022-10-24T11:55:21.551Z,101016.09
2022-10-24T11:57:54.133Z,101012.53
2022-10-24T12:00:26.445Z,101008.97
2022-10-24T12:03:20.032Z,101012.75
2022-10-24T12:06:09.847Z,101012.06
2022-10-24T12:09:05.508Z,101011.28
2022-10-24T12:11:57.536Z,101007.56
2022-10-24T12:14:57.292Z,101006.78
2022-10-24T12:17:42.111Z,100997.16
2022-10-24T12:20:16.446Z,100998.66
2022-10-24T12:22:48.126Z,100989.88
2022-10-24T12:25:22.311Z,100987.53
2022-10-24T12:27:56.644Z,100983.75
2022-10-24T12:30:26.601Z,100977.22
2022-10-24T12:32:58.594Z,100980.56
2022-10-24T12:35:56.506Z,100979.28
2022-10-24T12:39:07.862Z,100974.03
2022-10-24T12:41:44.849Z,100970.31
2022-10-24T12:44:41.257Z,100953.47
2022-10-24T12:47:36.537Z,100973.72
2022-10-24T12:50:41.850Z,100976.66
2022-10-24T12:53:30.677Z,100970.47
2022-10-24T12:56:17.103Z,100966.28
2022-10-24T12:58:58.190Z,100966.19
2022-10-24T13:01:33.358Z,100934.81
2022-10-24T13:04:34.260Z,100952.28
2022-10-24T13:07:25.107Z,100955.41
2022-10-24T13:10:16.606Z,100953.50
2022-10-24T13:13:03.000Z,100946.97
2022-10-24T13:15:43.301Z,100952.44
2022-10-24T13:18:26.210Z,100952.16
2022-10-24T13:21:16.848Z,100944.47
2022-10-24T13:23:47.102Z,100946.38
2022-10-24T13:26:37.352Z,100938.34
2022-10-24T13:29:05.881Z,100940.84
2022-10-24T13:31:45.335Z,100945.63
2022-10-24T13:34:32.033Z,100945.19
2022-10-24T13:37:23.305Z,100955.44
2022-10-24T13:39:56.003Z,100953.88
2022-10-24T13:42:32.967Z,100946.28
2022-10-24T13:45:05.884Z,100939.88
2022-10-24T13:47:41.679Z,100940.19
2022-10-24T13:50:18.721Z,100940.63
2022-10-24T13:52:50.158Z,100935.63
2022-10-24T13:55:26.202Z,100934.41
2022-10-24T13:58:01.366Z,100941.06
2022-10-24T14:00:32.511Z,100930.59
2022-10-24T14:03:06.438Z,100927.50
2022-10-24T14:05:38.999Z,100915.13
2022-10-24T14:08:09.706Z,100930.44
2022-10-24T14:10:46.203Z,100931.28
2022-10-24T14:13:21.622Z,100931.91
2022-10-24T14:15:51.744Z,100930.59
2022-10-24T14:18:23.038Z,100943.66
2022-10-24T14:20:56.562Z,100935.91
2022-10-24T14:23:31.096Z,100919.91
2022-10-24T14:26:02.945Z,100941.13
2022-10-24T14:28:34.201Z,100943.53
2022-10-24T14:31:04.721Z,100920.75
2022-10-24T14:33:43.077Z,100933.78
2022-10-24T14:36:12.683Z,100930.69
2022-10-24T14:38:41.546Z,100938.06
2022-10-24T14:41:11.257Z,100938.28
2022-10-24T14:43:42.766Z,100945.47
2022-10-24T14:46:34.180Z,100956.22
2022-10-24T14:49:22.027Z,100961.53
2022-10-24T14:54:31.430Z,100958.19
2022-10-24T14:57:00.907Z,100954.66
2022-10-24T14:59:33.273Z,100954.53
2022-10-24T15:02:04.491Z,100918.22
2022-10-24T15:04:41.285Z,100956.25
2022-10-24T15:07:27.944Z,100957.50
2022-10-24T15:09:58.385Z,100966.13
2022-10-24T15:12:35.150Z,100954.28
2022-10-24T15:15:25.130Z,100979.91
2022-10-24T15:17:54.817Z,100977.81
2022-10-24T15:20:28.540Z,100977.44
2022-10-24T15:22:59.457Z,100982.28
2022-10-24T15:25:31.515Z,100983.94
2022-10-24T15:28:00.648Z,100986.28
2022-10-24T15:30:30.341Z,100994.06
2022-10-24T15:33:00.243Z,100999.50
2022-10-24T15:35:31.044Z,100991.75
2022-10-24T15:38:02.019Z,101002.22
2022-10-24T15:40:34.172Z,100998.44
2022-10-24T15:43:03.257Z,101006.00
2022-10-24T15:45:31.442Z,101005.19
2022-10-24T15:47:59.991Z,101005.63
2022-10-24T15:50:29.634Z,101002.47
2022-10-24T15:52:59.536Z,100999.00
2022-10-24T15:55:30.759Z,100976.22
2022-10-24T15:58:00.171Z,100999.84
2022-10-24T16:00:28.599Z,100998.22
2022-10-24T16:03:00.861Z,101008.72
2022-10-24T16:05:35.949Z,100995.13
2022-10-24T16:08:04.480Z,100994.09
2022-10-24T16:10:32.759Z,100992.63
2022-10-24T16:13:01.050Z,100992.03
2022-10-24T16:18:06.912Z,101003.19
2022-10-24T16:20:37.025Z,101002.19
2022-10-24T16:23:06.486Z,101000.31
2022-10-24T16:25:37.027Z,100997.59
2022-10-24T16:28:07.449Z,101003.69
2022-10-24T16:30:40.420Z,101006.00
2022-10-24T16:33:09.528Z,100999.34
2022-10-24T16:35:40.167Z,101006.88
2022-10-24T16:38:09.795Z,101005.00
2022-10-24T16:40:43.227Z,101004.81
2022-10-24T16:43:12.826Z,101005.19
2022-10-24T16:45:41.195Z,100970.94
2022-10-24T16:48:09.681Z,101017.59
2022-10-24T16:50:43.970Z,101009.22
2022-10-24T16:53:14.535Z,101014.44
2022-10-24T16:55:48.548Z,101014.88
2022-10-24T16:58:17.746Z,101024.50
2022-10-24T17:00:46.832Z,101015.50
2022-10-24T17:03:15.318Z,101021.56
2022-10-24T17:08:16.010Z,101016.75
2022-10-24T17:10:44.305Z,101016.13
2022-10-24T17:13:12.567Z,101024.09
2022-10-24T17:15:41.285Z,101031.59
2022-10-24T17:18:10.057Z,101039.53
2022-10-24T17:20:38.276Z,101038.88
2022-10-24T17:23:08.506Z,101043.66
2022-10-24T17:25:36.931Z,101047.22
2022-10-24T17:28:05.672Z,101048.88
2022-10-24T17:30:34.631Z,101047.41
2022-10-24T17:33:03.373Z,101052.44
2022-10-24T17:35:32.036Z,101051.59
2022-10-24T17:38:16.680Z,101051.78
2022-10-24T17:40:47.247Z,101069.09
2022-10-24T17:43:21.607Z,101072.03
2022-10-24T17:45:51.037Z,101085.81
2022-10-24T17:48:19.552Z,101095.00
2022-10-24T17:50:48.367Z,101088.09
2022-10-24T17:53:20.617Z,101103.34
2022-10-24T17:55:49.282Z,101106.22
2022-10-24T17:58:17.864Z,100992.00
2022-10-24T18:00:46.666Z,101104.72
2022-10-24T18:03:15.765Z,101110.78
2022-10-24T18:05:43.984Z,101111.19
2022-10-24T18:08:14.433Z,101107.81
2022-10-24T18:10:44.283Z,101108.81
2022-10-24T18:13:12.599Z,101111.25
2022-10-24T18:15:40.912Z,101109.75
2022-10-24T18:18:09.746Z,101114.94
2022-10-24T18:20:38.036Z,101126.41
2022-10-24T18:23:06.330Z,101123.84
2022-10-24T18:25:34.685Z,101126.13
2022-10-24T18:28:04.338Z,101122.94
2022-10-24T18:30:32.971Z,101121.66
2022-10-24T18:33:01.258Z,101121.41
2022-10-24T18:35:33.149Z,101121.41
2022-10-24T18:38:02.210Z,101125.38
2022-10-24T18:40:33.403Z,101120.34
2022-10-24T18:43:06.115Z,101125.78
2022-10-24T18:45:35.214Z,101128.03
2022-10-24T18:48:04.147Z,101130.31
2022-10-24T18:50:32.871Z,101140.31
2022-10-24T18:53:05.916Z,101142.38
2022-10-24T18:55:36.797Z,101147.16
2022-10-24T18:58:11.632Z,101150.91
2022-10-24T19:00:42.356Z,101147.94
2022-10-24T19:03:21.817Z,101154.38
2022-10-24T19:05:55.023Z,101158.13
2022-10-24T19:08:25.404Z,101155.22
2022-10-24T19:10:56.365Z,101154.38
2022-10-24T19:13:27.627Z,101154.38
2022-10-24T19:16:00.234Z,101156.03
2022-10-24T19:18:29.798Z,101165.19
2022-10-24T19:20:58.070Z,101164.75
2022-10-24T19:23:26.501Z,101165.50
2022-10-24T19:25:54.841Z,101171.13
2022-10-24T19:28:23.330Z,101167.56
2022-10-24T19:30:54.077Z,101160.91
2022-10-24T19:33:25.129Z,101160.81
2022-10-24T19:35:53.451Z,101172.69
2022-10-24T19:38:21.699Z,101173.06
2022-10-24T19:40:52.127Z,101177.84
2022-10-24T19:43:20.807Z,101168.69
2022-10-24T19:45:55.140Z,101163.25
2022-10-24T19:48:38.045Z,101165.31
2022-10-24T19:51:10.988Z,101149.19
2022-10-24T19:53:41.293Z,101161.13
2022-10-24T19:56:11.494Z,101143.44
2022-10-24T19:58:40.754Z,101163.78
2022-10-24T20:01:10.414Z,101170.41
2022-10-24T20:03:41.188Z,101165.19
2022-10-24T20:06:10.690Z,101169.97
2022-10-24T20:08:39.201Z,101178.09
2022-10-24T20:11:08.549Z,101173.69
2022-10-24T20:13:37.301Z,101178.09
2022-10-24T20:16:07.795Z,101173.88
2022-10-24T20:18:38.146Z,101182.13
2022-10-24T20:21:09.548Z,101186.31
2022-10-24T20:23:38.467Z,101177.34
2022-10-24T20:26:09.167Z,101180.91
2022-10-24T20:28:39.642Z,101180.44
2022-10-24T20:31:08.738Z,101185.84
2022-10-24T20:33:36.969Z,101181.47
2022-10-24T20:36:05.502Z,101182.81
2022-10-24T20:38:35.081Z,101197.91
2022-10-24T20:41:04.013Z,101198.75
2022-10-24T20:43:32.412Z,101205.00
2022-10-24T20:46:00.738Z,101202.13
2022-10-24T20:48:28.958Z,101213.13
2022-10-24T20:51:05.398Z,101205.00
2022-10-24T20:53:35.295Z,101213.31
2022-10-24T20:56:08.160Z,101185.44
2022-10-24T20:58:38.594Z,101221.88
2022-10-24T21:01:08.496Z,101230.84
2022-10-24T21:03:37.250Z,101232.50
2022-10-24T21:06:06.505Z,101236.25
2022-10-24T21:08:36.184Z,101238.50
2022-10-24T21:11:07.369Z,101241.56
2022-10-24T21:13:35.612Z,101248.22
2022-10-24T21:16:04.157Z,101241.47
2022-10-24T21:18:33.197Z,101245.94
2022-10-24T21:21:07.273Z,101238.00
2022-10-24T21:23:37.298Z,101191.09
2022-10-24T21:26:08.041Z,101238.78
2022-10-24T21:28:37.083Z,101247.34
2022-10-24T21:31:06.653Z,101244.19
2022-10-24T21:33:35.301Z,101250.34
2022-10-24T21:36:08.309Z,101245.31
2022-10-24T21:38:38.002Z,101249.59
2022-10-24T21:41:08.151Z,101254.88
2022-10-24T21:43:37.814Z,101211.97
2022-10-24T21:46:08.314Z,101254.69
2022-10-24T21:48:36.912Z,101258.88
2022-10-24T21:51:07.691Z,101243.84
2022-10-24T21:53:41.730Z,101241.69
2022-10-24T21:56:12.271Z,101249.19
2022-10-24T21:58:41.264Z,101252.53
2022-10-24T22:01:13.245Z,101237.53
2022-10-24T22:03:42.459Z,101240.66
2022-10-24T22:06:13.497Z,101241.50
2022-10-24T22:08:43.936Z,101225.38
2022-10-24T22:11:15.147Z,101230.88
2022-10-24T22:13:43.914Z,101237.03
2022-10-24T22:16:14.865Z,101234.53
2022-10-24T22:18:43.408Z,101239.75
2022-10-24T22:21:23.777Z,101245.81
2022-10-24T22:23:53.711Z,101252.06
2022-10-24T22:26:21.959Z,101245.81
2022-10-24T22:28:50.627Z,101252.06
2022-10-24T22:31:19.821Z,101247.03
2022-10-24T22:33:48.388Z,101243.84
2022-10-24T22:36:23.930Z,101250.09
2022-10-24T22:38:55.405Z,101250.81
2022-10-24T22:41:24.392Z,101253.91
2022-10-24T22:43:53.182Z,101252.22
2022-10-24T22:46:35.975Z,101258.00
2022-10-24T22:49:09.454Z,101253.34
2022-10-24T22:51:38.301Z,101252.94
2022-10-24T22:54:15.459Z,101257.16
2022-10-24T22:56:44.657Z,101266.66
2022-10-24T22:59:13.625Z,101260.78
2022-10-24T23:01:57.775Z,101259.59
2022-10-24T23:04:35.207Z,101262.47
2022-10-24T23:07:11.329Z,101271.63
2022-10-24T23:09:41.067Z,101268.91
2022-10-24T23:12:14.512Z,101275.59
2022-10-24T23:14:43.565Z,101280.97
2022-10-24T23:17:14.924Z,101260.22
2022-10-24T23:19:46.940Z,101282.94
2022-10-24T23:22:23.337Z,101293.09
2022-10-24T23:24:54.684Z,101293.47
2022-10-24T23:27:34.477Z,101292.16
2022-10-24T23:30:04.883Z,101293.72
2022-10-24T23:32:36.312Z,101292.25
2022-10-24T23:35:05.966Z,101284.66
2022-10-24T23:37:36.262Z,101286.16
2022-10-24T23:40:24.495Z,101295.66
2022-10-24T23:42:53.681Z,101296.03
2022-10-24T23:45:23.558Z,101260.03
2022-10-24T23:48:08.791Z,101294.22
2022-10-24T23:50:44.343Z,101275.59
2022-10-24T23:53:24.600Z,101293.06
2022-10-24T23:55:54.980Z,101306.75
2022-10-24T23:58:23.267Z,101299.66
